PWSweather.com
Personal Weather Stations
Station Observations
WATERF01
WaterfordIE

WaterfordIE

Lat: 52.2412507, Lon: -7.1414691

Elevation: 65

Station Type: Davis Vantage Vue

www.waterfordweather.com

High Low Average
Temperature 54.4°F12.4°C 36.9°F2.7°C 44.9°F7.2°C
Dew Point 53.8°F12.1°C 32.9°F0.5°C 41.4°F5.2°C
Winds 20.7 mph 33.3 kmh 1.2 mph 1.9 kmh 8.0 mph WNW12.9 kmh WNW
Wind Gusts 32.2 mph51.8 kmh 2.3 mph3.7 kmh 14.0 mph22.5 kmh
Humidity 98% 71% 88%
Pressure 30.09 in1019.0 mb 29.58 in1001.7 mb -
Precipitation 0.14 in3.6 mm - -
Hour Temp Dew Point Humidity Winds Wind Gusts Pressure Precip Precip Rate Daily Precip Total
12:00 AM 54.4°F12.4°C 53.8°F12.1°C 98% 11.5 mph W18.5 kmh W 21.9 mph35.2 kmh 29.65 in1004.1 mb - 0.01 in0.3 mm 0.01 in0.3 mm
12:10 AM 54.3°F12.4°C 53.7°F12.1°C 98% 11.5 mph W18.5 kmh W 19.6 mph31.5 kmh 29.65 in1004.1 mb - 0.00 in0.0 mm 0.01 in0.3 mm
12:20 AM 54.2°F12.3°C 53.6°F12.0°C 98% 9.2 mph WSW14.8 kmh WSW 19.6 mph31.5 kmh 29.64 in1003.7 mb - 0.00 in0.0 mm 0.01 in0.3 mm
12:30 AM 54.2°F12.3°C 53.6°F12.0°C 98% 12.7 mph WSW20.4 kmh WSW 18.4 mph29.6 kmh 29.64 in1003.7 mb - 0.00 in0.0 mm 0.01 in0.3 mm
12:40 AM 54.3°F12.4°C 53.7°F12.1°C 98% 10.4 mph W16.7 kmh W 16.1 mph25.9 kmh 29.63 in1003.4 mb - 0.00 in0.0 mm 0.01 in0.3 mm
12:50 AM 54.3°F12.4°C 53.7°F12.1°C 98% 11.5 mph WSW18.5 kmh WSW 21.9 mph35.2 kmh 29.63 in1003.4 mb - 0.00 in0.0 mm 0.01 in0.3 mm
01:00 AM 54.3°F12.4°C 53.7°F12.1°C 98% 9.2 mph SW14.8 kmh SW 19.6 mph31.5 kmh 29.62 in1003.0 mb - 0.00 in0.0 mm 0.01 in0.3 mm
01:10 AM 54.2°F12.3°C 53.6°F12.0°C 98% 10.4 mph W16.7 kmh W 21.9 mph35.2 kmh 29.62 in1003.0 mb - 0.00 in0.0 mm 0.01 in0.3 mm
01:20 AM 54.2°F12.3°C 53.6°F12.0°C 98% 9.2 mph WSW14.8 kmh WSW 25.3 mph40.7 kmh 29.62 in1003.0 mb - 0.00 in0.0 mm 0.01 in0.3 mm
01:30 AM 54.2°F12.3°C 53.6°F12.0°C 98% 9.2 mph WSW14.8 kmh WSW 18.4 mph29.6 kmh 29.61 in1002.7 mb - 0.00 in0.0 mm 0.01 in0.3 mm
01:40 AM 54.1°F12.3°C 53.5°F11.9°C 98% 9.2 mph NW14.8 kmh NW 16.1 mph25.9 kmh 29.60 in1002.4 mb - 0.01 in0.3 mm 0.01 in0.3 mm
01:50 AM 54.1°F12.3°C 53.5°F11.9°C 98% 12.7 mph W20.4 kmh W 23.0 mph37.0 kmh 29.60 in1002.4 mb - 0.01 in0.3 mm 0.02 in0.5 mm
02:00 AM 54.0°F12.2°C 53.4°F11.9°C 98% 10.4 mph W16.7 kmh W 16.1 mph25.9 kmh 29.60 in1002.4 mb - 0.01 in0.3 mm 0.03 in0.8 mm
02:10 AM 53.9°F12.2°C 53.3°F11.8°C 98% 10.4 mph WNW16.7 kmh WNW 18.4 mph29.6 kmh 29.59 in1002.0 mb - 0.01 in0.3 mm 0.04 in1.0 mm
02:20 AM 53.8°F12.1°C 53.3°F11.8°C 98% 11.5 mph W18.5 kmh W 16.1 mph25.9 kmh 29.59 in1002.0 mb - 0.01 in0.3 mm 0.05 in1.3 mm
02:30 AM 53.8°F12.1°C 53.2°F11.8°C 98% 9.2 mph WNW14.8 kmh WNW 15.0 mph24.1 kmh 29.59 in1002.0 mb - 0.01 in0.3 mm 0.06 in1.5 mm
02:40 AM 53.7°F12.1°C 53.1°F11.7°C 98% 8.1 mph WSW13.0 kmh WSW 15.0 mph24.1 kmh 29.59 in1002.0 mb - 0.01 in0.3 mm 0.07 in1.8 mm
02:50 AM 53.6°F12.0°C 53.0°F11.7°C 98% 12.7 mph WSW20.4 kmh WSW 18.4 mph29.6 kmh 29.59 in1002.0 mb - 0.00 in0.0 mm 0.07 in1.8 mm
03:00 AM 53.5°F11.9°C 53.0°F11.7°C 98% 8.1 mph W13.0 kmh W 11.5 mph18.5 kmh 29.59 in1002.0 mb - 0.00 in0.0 mm 0.07 in1.8 mm
03:10 AM 53.5°F11.9°C 52.9°F11.6°C 98% 9.2 mph SW14.8 kmh SW 15.0 mph24.1 kmh 29.59 in1002.0 mb - 0.01 in0.3 mm 0.08 in2.0 mm
03:20 AM 53.4°F11.9°C 52.8°F11.6°C 98% 8.1 mph WNW13.0 kmh WNW 12.7 mph20.4 kmh 29.58 in1001.7 mb - 0.01 in0.3 mm 0.09 in2.3 mm
03:30 AM 53.3°F11.8°C 52.8°F11.6°C 98% 8.1 mph W13.0 kmh W 13.8 mph22.2 kmh 29.60 in1002.4 mb - 0.02 in0.5 mm 0.11 in2.8 mm
03:40 AM 53.3°F11.8°C 52.8°F11.6°C 98% 8.1 mph WSW13.0 kmh WSW 13.8 mph22.2 kmh 29.60 in1002.4 mb - 0.00 in0.0 mm 0.11 in2.8 mm
03:50 AM 53.4°F11.9°C 52.8°F11.6°C 98% 4.6 mph WSW7.4 kmh WSW 5.8 mph9.3 kmh 29.61 in1002.7 mb - 0.00 in0.0 mm 0.11 in2.8 mm
04:00 AM 53.6°F12.0°C 53.0°F11.7°C 98% 4.6 mph W7.4 kmh W 8.1 mph13.0 kmh 29.61 in1002.7 mb - 0.00 in0.0 mm 0.11 in2.8 mm
04:10 AM 53.6°F12.0°C 53.0°F11.7°C 98% 4.6 mph WNW7.4 kmh WNW 8.1 mph13.0 kmh 29.62 in1003.0 mb - 0.00 in0.0 mm 0.11 in2.8 mm
04:20 AM 53.7°F12.1°C 53.2°F11.8°C 98% 12.7 mph NNW20.4 kmh NNW 27.6 mph44.4 kmh 29.64 in1003.7 mb - 0.01 in0.3 mm 0.12 in3.0 mm
04:30 AM 48.8°F9.3°C 48.2°F9.0°C 98% 16.1 mph NW25.9 kmh NW 25.3 mph40.7 kmh 29.67 in1004.7 mb - 0.00 in0.0 mm 0.12 in3.0 mm
04:40 AM 47.6°F8.7°C 47.1°F8.4°C 98% 19.6 mph NW31.5 kmh NW 27.6 mph44.4 kmh 29.68 in1005.1 mb - 0.00 in0.0 mm 0.12 in3.0 mm
04:50 AM 47.1°F8.4°C 46.6°F8.1°C 98% 11.5 mph NW18.5 kmh NW 25.3 mph40.7 kmh 29.69 in1005.4 mb - 0.00 in0.0 mm 0.12 in3.0 mm
05:00 AM 46.8°F8.2°C 46.3°F7.9°C 98% 11.5 mph NW18.5 kmh NW 18.4 mph29.6 kmh 29.70 in1005.8 mb - 0.00 in0.0 mm 0.12 in3.0 mm
05:10 AM 47.2°F8.4°C 46.7°F8.2°C 98% 13.8 mph NW22.2 kmh NW 21.9 mph35.2 kmh 29.70 in1005.8 mb - 0.00 in0.0 mm 0.12 in3.0 mm
05:20 AM 46.3°F7.9°C 45.2°F7.3°C 96% 20.7 mph NW33.3 kmh NW 29.9 mph48.1 kmh 29.70 in1005.8 mb - 0.00 in0.0 mm 0.12 in3.0 mm
05:30 AM 46.3°F7.9°C 44.7°F7.1°C 94% 19.6 mph NW31.5 kmh NW 28.8 mph46.3 kmh 29.70 in1005.8 mb - 0.00 in0.0 mm 0.12 in3.0 mm
05:40 AM 46.1°F7.8°C 43.9°F6.6°C 92% 18.4 mph NW29.6 kmh NW 32.2 mph51.8 kmh 29.71 in1006.1 mb - 0.00 in0.0 mm 0.12 in3.0 mm
05:50 AM 45.8°F7.7°C 42.4°F5.8°C 88% 15.0 mph NW24.1 kmh NW 25.3 mph40.7 kmh 29.72 in1006.4 mb - 0.00 in0.0 mm 0.12 in3.0 mm
06:00 AM 45.5°F7.5°C 41.6°F5.3°C 86% 12.7 mph NW20.4 kmh NW 19.6 mph31.5 kmh 29.74 in1007.1 mb - 0.00 in0.0 mm 0.12 in3.0 mm
06:10 AM 45.2°F7.3°C 41.6°F5.3°C 87% 6.9 mph NW11.1 kmh NW 9.2 mph14.8 kmh 29.77 in1008.1 mb - 0.00 in0.0 mm 0.12 in3.0 mm
06:20 AM 44.9°F7.2°C 41.3°F5.2°C 87% 3.5 mph NW5.6 kmh NW 8.1 mph13.0 kmh 29.77 in1008.1 mb - 0.00 in0.0 mm 0.12 in3.0 mm
06:30 AM 44.6°F7.0°C 40.1°F4.5°C 84% 9.2 mph NW14.8 kmh NW 13.8 mph22.2 kmh 29.76 in1007.8 mb - 0.00 in0.0 mm 0.12 in3.0 mm
06:40 AM 44.3°F6.8°C 40.1°F4.5°C 85% 3.5 mph NNW5.6 kmh NNW 6.9 mph11.1 kmh 29.77 in1008.1 mb - 0.00 in0.0 mm 0.12 in3.0 mm
06:50 AM 44.1°F6.7°C 39.9°F4.4°C 85% 8.1 mph NW13.0 kmh NW 15.0 mph24.1 kmh 29.76 in1007.8 mb - 0.00 in0.0 mm 0.12 in3.0 mm
07:00 AM 44.1°F6.7°C 39.6°F4.2°C 84% 15.0 mph NNW24.1 kmh NNW 26.5 mph42.6 kmh 29.75 in1007.5 mb - 0.00 in0.0 mm 0.12 in3.0 mm
07:10 AM 43.9°F6.6°C 39.3°F4.1°C 84% 17.3 mph NW27.8 kmh NW 28.8 mph46.3 kmh 29.75 in1007.5 mb - 0.00 in0.0 mm 0.12 in3.0 mm
07:20 AM 43.8°F6.6°C 39.3°F4.1°C 84% 15.0 mph NW24.1 kmh NW 26.5 mph42.6 kmh 29.76 in1007.8 mb - 0.00 in0.0 mm 0.12 in3.0 mm
07:30 AM 43.7°F6.5°C 39.2°F4.0°C 84% 17.3 mph NW27.8 kmh NW 23.0 mph37.0 kmh 29.77 in1008.1 mb - 0.00 in0.0 mm 0.12 in3.0 mm
07:40 AM 43.5°F6.4°C 39.0°F3.9°C 84% 11.5 mph NW18.5 kmh NW 20.7 mph33.3 kmh 29.79 in1008.8 mb - 0.00 in0.0 mm 0.12 in3.0 mm
07:50 AM 43.3°F6.3°C 38.8°F3.8°C 84% 13.8 mph NW22.2 kmh NW 20.7 mph33.3 kmh 29.80 in1009.1 mb - 0.00 in0.0 mm 0.12 in3.0 mm
08:00 AM 43.1°F6.2°C 38.9°F3.8°C 85% 17.3 mph NW27.8 kmh NW 23.0 mph37.0 kmh 29.80 in1009.1 mb - 0.00 in0.0 mm 0.12 in3.0 mm
08:10 AM 43.2°F6.2°C 39.3°F4.1°C 86% 11.5 mph NW18.5 kmh NW 18.4 mph29.6 kmh 29.82 in1009.8 mb - 0.00 in0.0 mm 0.12 in3.0 mm
08:20 AM 43.3°F6.3°C 39.7°F4.3°C 87% 10.4 mph NW16.7 kmh NW 15.0 mph24.1 kmh 29.84 in1010.5 mb - 0.00 in0.0 mm 0.12 in3.0 mm
08:30 AM 43.2°F6.2°C 39.6°F4.2°C 87% 10.4 mph NW16.7 kmh NW 18.4 mph29.6 kmh 29.85 in1010.8 mb - 0.00 in0.0 mm 0.12 in3.0 mm
08:40 AM 43.2°F6.2°C 39.3°F4.1°C 86% 9.2 mph NW14.8 kmh NW 13.8 mph22.2 kmh 29.86 in1011.2 mb - 0.00 in0.0 mm 0.12 in3.0 mm
08:50 AM 43.3°F6.3°C 39.7°F4.3°C 87% 8.1 mph NW13.0 kmh NW 13.8 mph22.2 kmh 29.87 in1011.5 mb - 0.00 in0.0 mm 0.12 in3.0 mm
09:00 AM 43.4°F6.3°C 39.8°F4.3°C 87% 9.2 mph NW14.8 kmh NW 16.1 mph25.9 kmh 29.87 in1011.5 mb - 0.00 in0.0 mm 0.12 in3.0 mm
09:10 AM 43.5°F6.4°C 39.9°F4.4°C 87% 10.4 mph NW16.7 kmh NW 15.0 mph24.1 kmh 29.88 in1011.9 mb - 0.00 in0.0 mm 0.12 in3.0 mm
09:20 AM 43.6°F6.4°C 40.0°F4.4°C 87% 6.9 mph NW11.1 kmh NW 13.8 mph22.2 kmh 29.89 in1012.2 mb - 0.00 in0.0 mm 0.12 in3.0 mm
09:30 AM 43.7°F6.5°C 40.1°F4.5°C 87% 6.9 mph NW11.1 kmh NW 16.1 mph25.9 kmh 29.91 in1012.9 mb - 0.00 in0.0 mm 0.12 in3.0 mm
09:40 AM 43.6°F6.4°C 40.0°F4.4°C 87% 6.9 mph NW11.1 kmh NW 15.0 mph24.1 kmh 29.91 in1012.9 mb - 0.00 in0.0 mm 0.12 in3.0 mm
09:50 AM 43.6°F6.4°C 40.0°F4.4°C 87% 6.9 mph NW11.1 kmh NW 8.1 mph13.0 kmh 29.92 in1013.2 mb - 0.00 in0.0 mm 0.12 in3.0 mm
10:00 AM 43.8°F6.6°C 40.2°F4.6°C 87% 6.9 mph NW11.1 kmh NW 11.5 mph18.5 kmh 29.93 in1013.5 mb - 0.00 in0.0 mm 0.12 in3.0 mm
10:10 AM 44.0°F6.7°C 40.4°F4.7°C 87% 3.5 mph NNW5.6 kmh NNW 8.1 mph13.0 kmh 29.93 in1013.5 mb - 0.00 in0.0 mm 0.12 in3.0 mm
10:20 AM 44.1°F6.7°C 40.5°F4.7°C 87% 3.5 mph NNE5.6 kmh NNE 5.8 mph9.3 kmh 29.93 in1013.5 mb - 0.00 in0.0 mm 0.12 in3.0 mm
10:30 AM 44.5°F6.9°C 40.9°F4.9°C 87% 3.5 mph N5.6 kmh N 5.8 mph9.3 kmh 29.93 in1013.5 mb - 0.00 in0.0 mm 0.12 in3.0 mm
10:40 AM 44.9°F7.2°C 40.7°F4.8°C 85% 2.3 mph NNW3.7 kmh NNW 4.6 mph7.4 kmh 29.94 in1013.9 mb - 0.00 in0.0 mm 0.12 in3.0 mm
10:50 AM 45.2°F7.3°C 40.7°F4.8°C 84% 6.9 mph NW11.1 kmh NW 12.7 mph20.4 kmh 29.94 in1013.9 mb - 0.00 in0.0 mm 0.12 in3.0 mm
11:00 AM 45.4°F7.4°C 40.2°F4.6°C 82% 5.8 mph NW9.3 kmh NW 9.2 mph14.8 kmh 29.95 in1014.2 mb - 0.00 in0.0 mm 0.12 in3.0 mm
11:10 AM 45.4°F7.4°C 40.6°F4.8°C 83% 4.6 mph NNW7.4 kmh NNW 8.1 mph13.0 kmh 29.94 in1013.9 mb - 0.00 in0.0 mm 0.12 in3.0 mm
11:20 AM 45.6°F7.6°C 40.7°F4.8°C 83% 3.5 mph WNW5.6 kmh WNW 5.8 mph9.3 kmh 29.94 in1013.9 mb - 0.00 in0.0 mm 0.12 in3.0 mm
11:30 AM 45.7°F7.6°C 40.9°F4.9°C 83% 4.6 mph NW7.4 kmh NW 11.5 mph18.5 kmh 29.94 in1013.9 mb - 0.00 in0.0 mm 0.12 in3.0 mm
11:40 AM 45.6°F7.6°C 40.4°F4.7°C 82% 8.1 mph NW13.0 kmh NW 11.5 mph18.5 kmh 29.94 in1013.9 mb - 0.00 in0.0 mm 0.12 in3.0 mm
11:50 AM 45.6°F7.6°C 40.7°F4.8°C 83% 6.9 mph WNW11.1 kmh WNW 13.8 mph22.2 kmh 29.94 in1013.9 mb - 0.00 in0.0 mm 0.12 in3.0 mm
12:00 PM 45.6°F7.6°C 40.7°F4.8°C 83% 8.1 mph NW13.0 kmh NW 12.7 mph20.4 kmh 29.94 in1013.9 mb - 0.00 in0.0 mm 0.12 in3.0 mm
12:10 PM 45.6°F7.6°C 40.8°F4.9°C 83% 10.4 mph NW16.7 kmh NW 13.8 mph22.2 kmh 29.94 in1013.9 mb - 0.00 in0.0 mm 0.12 in3.0 mm
12:20 PM 45.8°F7.7°C 40.9°F4.9°C 83% 8.1 mph NW13.0 kmh NW 13.8 mph22.2 kmh 29.93 in1013.5 mb - 0.00 in0.0 mm 0.12 in3.0 mm
12:30 PM 45.9°F7.7°C 40.7°F4.8°C 82% 8.1 mph WNW13.0 kmh WNW 13.8 mph22.2 kmh 29.93 in1013.5 mb - 0.00 in0.0 mm 0.12 in3.0 mm
12:40 PM 45.9°F7.7°C 40.7°F4.8°C 82% 8.1 mph WNW13.0 kmh WNW 12.7 mph20.4 kmh 29.94 in1013.9 mb - 0.00 in0.0 mm 0.12 in3.0 mm
12:50 PM 46.2°F7.9°C 40.7°F4.8°C 81% 6.9 mph WNW11.1 kmh WNW 11.5 mph18.5 kmh 29.95 in1014.2 mb - 0.00 in0.0 mm 0.12 in3.0 mm
01:00 PM 46.5°F8.1°C 41.0°F5.0°C 81% 9.2 mph WNW14.8 kmh WNW 16.1 mph25.9 kmh 29.95 in1014.2 mb - 0.00 in0.0 mm 0.12 in3.0 mm
01:10 PM 46.8°F8.2°C 41.0°F5.0°C 80% 8.1 mph WNW13.0 kmh WNW 13.8 mph22.2 kmh 29.95 in1014.2 mb - 0.00 in0.0 mm 0.12 in3.0 mm
01:20 PM 47.0°F8.3°C 40.9°F4.9°C 79% 9.2 mph WNW14.8 kmh WNW 15.0 mph24.1 kmh 29.95 in1014.2 mb - 0.00 in0.0 mm 0.12 in3.0 mm
01:30 PM 47.2°F8.4°C 40.7°F4.8°C 78% 10.4 mph WNW16.7 kmh WNW 20.7 mph33.3 kmh 29.95 in1014.2 mb - 0.00 in0.0 mm 0.12 in3.0 mm
01:40 PM 47.6°F8.7°C 40.7°F4.8°C 77% 8.1 mph NW13.0 kmh NW 11.5 mph18.5 kmh 29.95 in1014.2 mb - 0.00 in0.0 mm 0.12 in3.0 mm
01:50 PM 46.9°F8.3°C 40.7°F4.8°C 79% 9.2 mph WNW14.8 kmh WNW 13.8 mph22.2 kmh 29.95 in1014.2 mb - 0.00 in0.0 mm 0.12 in3.0 mm
02:00 PM 46.6°F8.1°C 40.1°F4.5°C 78% 6.9 mph NW11.1 kmh NW 13.8 mph22.2 kmh 29.95 in1014.2 mb - 0.00 in0.0 mm 0.12 in3.0 mm
02:10 PM 46.8°F8.2°C 40.0°F4.4°C 77% 6.9 mph WNW11.1 kmh WNW 13.8 mph22.2 kmh 29.95 in1014.2 mb - 0.00 in0.0 mm 0.12 in3.0 mm
02:20 PM 46.9°F8.3°C 39.4°F4.1°C 75% 9.2 mph WNW14.8 kmh WNW 13.8 mph22.2 kmh 29.95 in1014.2 mb - 0.00 in0.0 mm 0.12 in3.0 mm
02:30 PM 47.0°F8.3°C 38.4°F3.6°C 72% 9.2 mph WNW14.8 kmh WNW 15.0 mph24.1 kmh 29.95 in1014.2 mb - 0.00 in0.0 mm 0.12 in3.0 mm
02:40 PM 46.9°F8.3°C 38.0°F3.3°C 71% 9.2 mph WNW14.8 kmh WNW 18.4 mph29.6 kmh 29.96 in1014.6 mb - 0.00 in0.0 mm 0.12 in3.0 mm
02:50 PM 46.7°F8.2°C 37.8°F3.2°C 71% 8.1 mph WNW13.0 kmh WNW 11.5 mph18.5 kmh 29.96 in1014.6 mb - 0.00 in0.0 mm 0.12 in3.0 mm
03:00 PM 46.6°F8.1°C 38.0°F3.3°C 72% 10.4 mph WNW16.7 kmh WNW 12.7 mph20.4 kmh 29.96 in1014.6 mb - 0.00 in0.0 mm 0.12 in3.0 mm
03:10 PM 46.7°F8.2°C 38.5°F3.6°C 73% 9.2 mph WNW14.8 kmh WNW 15.0 mph24.1 kmh 29.97 in1014.9 mb - 0.00 in0.0 mm 0.12 in3.0 mm
03:20 PM 45.7°F7.6°C 39.2°F4.0°C 78% 11.5 mph NW18.5 kmh NW 19.6 mph31.5 kmh 29.98 in1015.2 mb - 0.00 in0.0 mm 0.12 in3.0 mm
03:30 PM 44.7°F7.1°C 39.2°F4.0°C 81% 4.6 mph WNW7.4 kmh WNW 8.1 mph13.0 kmh 29.98 in1015.2 mb - 0.00 in0.0 mm 0.12 in3.0 mm
03:40 PM 44.2°F6.8°C 38.4°F3.6°C 80% 8.1 mph WNW13.0 kmh WNW 9.2 mph14.8 kmh 29.98 in1015.2 mb - 0.00 in0.0 mm 0.12 in3.0 mm
03:50 PM 44.1°F6.7°C 37.3°F2.9°C 77% 8.1 mph WNW13.0 kmh WNW 13.8 mph22.2 kmh 29.98 in1015.2 mb - 0.00 in0.0 mm 0.12 in3.0 mm
04:00 PM 43.9°F6.6°C 37.2°F2.9°C 77% 8.1 mph WNW13.0 kmh WNW 11.5 mph18.5 kmh 29.98 in1015.2 mb - 0.00 in0.0 mm 0.12 in3.0 mm
04:10 PM 43.5°F6.4°C 37.4°F3.0°C 79% 6.9 mph WNW11.1 kmh WNW 11.5 mph18.5 kmh 29.99 in1015.6 mb - 0.00 in0.0 mm 0.12 in3.0 mm
04:20 PM 43.1°F6.2°C 37.3°F2.9°C 80% 10.4 mph WNW16.7 kmh WNW 15.0 mph24.1 kmh 30.00 in1015.9 mb - 0.00 in0.0 mm 0.12 in3.0 mm
04:30 PM 43.2°F6.2°C 37.8°F3.2°C 81% 10.4 mph WNW16.7 kmh WNW 18.4 mph29.6 kmh 30.01 in1016.3 mb - 0.00 in0.0 mm 0.12 in3.0 mm
04:40 PM 42.1°F5.6°C 38.3°F3.5°C 86% 10.4 mph NW16.7 kmh NW 13.8 mph22.2 kmh 30.02 in1016.6 mb - 0.01 in0.3 mm 0.13 in3.3 mm
04:50 PM 40.5°F4.7°C 37.3°F2.9°C 88% 6.9 mph NW11.1 kmh NW 9.2 mph14.8 kmh 30.02 in1016.6 mb - 0.00 in0.0 mm 0.13 in3.3 mm
05:00 PM 40.0°F4.4°C 37.0°F2.8°C 89% 5.8 mph NW9.3 kmh NW 8.1 mph13.0 kmh 30.02 in1016.6 mb - 0.00 in0.0 mm 0.13 in3.3 mm
05:10 PM 39.7°F4.3°C 36.7°F2.6°C 89% 5.8 mph NW9.3 kmh NW 8.1 mph13.0 kmh 30.03 in1016.9 mb - 0.00 in0.0 mm 0.13 in3.3 mm
05:20 PM 39.4°F4.1°C 36.8°F2.7°C 90% 6.9 mph NW11.1 kmh NW 11.5 mph18.5 kmh 30.03 in1016.9 mb - 0.00 in0.0 mm 0.13 in3.3 mm
05:30 PM 39.4°F4.1°C 36.7°F2.6°C 90% 3.5 mph NW5.6 kmh NW 8.1 mph13.0 kmh 30.02 in1016.6 mb - 0.00 in0.0 mm 0.13 in3.3 mm
05:40 PM 39.2°F4.0°C 36.5°F2.5°C 90% 5.8 mph NW9.3 kmh NW 8.1 mph13.0 kmh 30.03 in1016.9 mb - 0.00 in0.0 mm 0.13 in3.3 mm
05:50 PM 39.1°F3.9°C 36.7°F2.6°C 91% 3.5 mph NW5.6 kmh NW 8.1 mph13.0 kmh 30.04 in1017.3 mb - 0.00 in0.0 mm 0.13 in3.3 mm
06:00 PM 39.0°F3.9°C 36.6°F2.6°C 91% 3.5 mph W5.6 kmh W 4.6 mph7.4 kmh 30.04 in1017.3 mb - 0.00 in0.0 mm 0.13 in3.3 mm
06:10 PM 38.3°F3.5°C 36.2°F2.3°C 92% 2.3 mph WNW3.7 kmh WNW 2.3 mph3.7 kmh 30.05 in1017.6 mb - 0.00 in0.0 mm 0.13 in3.3 mm
06:20 PM 38.4°F3.6°C 36.3°F2.4°C 92% 5.8 mph NW9.3 kmh NW 8.1 mph13.0 kmh 30.04 in1017.3 mb - 0.00 in0.0 mm 0.13 in3.3 mm
06:30 PM 39.7°F4.3°C 36.8°F2.7°C 89% 6.9 mph NW11.1 kmh NW 11.5 mph18.5 kmh 30.04 in1017.3 mb - 0.00 in0.0 mm 0.13 in3.3 mm
06:40 PM 40.1°F4.5°C 36.5°F2.5°C 87% 9.2 mph WNW14.8 kmh WNW 12.7 mph20.4 kmh 30.04 in1017.3 mb - 0.00 in0.0 mm 0.13 in3.3 mm
06:50 PM 40.1°F4.5°C 36.8°F2.7°C 88% 5.8 mph NW9.3 kmh NW 8.1 mph13.0 kmh 30.04 in1017.3 mb - 0.00 in0.0 mm 0.13 in3.3 mm
07:00 PM 39.7°F4.3°C 36.5°F2.5°C 88% 5.8 mph NW9.3 kmh NW 11.5 mph18.5 kmh 30.04 in1017.3 mb - 0.00 in0.0 mm 0.13 in3.3 mm
07:10 PM 39.7°F4.3°C 36.1°F2.3°C 87% 6.9 mph NW11.1 kmh NW 13.8 mph22.2 kmh 30.04 in1017.3 mb - 0.00 in0.0 mm 0.13 in3.3 mm
07:20 PM 39.7°F4.3°C 36.1°F2.3°C 87% 5.8 mph WNW9.3 kmh WNW 11.5 mph18.5 kmh 30.05 in1017.6 mb - 0.00 in0.0 mm 0.13 in3.3 mm
07:30 PM 39.8°F4.3°C 36.2°F2.3°C 87% 5.8 mph WNW9.3 kmh WNW 8.1 mph13.0 kmh 30.05 in1017.6 mb - 0.00 in0.0 mm 0.13 in3.3 mm
07:40 PM 39.9°F4.4°C 36.3°F2.4°C 87% 6.9 mph WNW11.1 kmh WNW 11.5 mph18.5 kmh 30.06 in1017.9 mb - 0.00 in0.0 mm 0.13 in3.3 mm
07:50 PM 40.2°F4.6°C 36.1°F2.3°C 85% 9.2 mph NW14.8 kmh NW 13.8 mph22.2 kmh 30.06 in1017.9 mb - 0.00 in0.0 mm 0.13 in3.3 mm
08:00 PM 40.5°F4.7°C 36.0°F2.2°C 84% 5.8 mph WNW9.3 kmh WNW 11.5 mph18.5 kmh 30.06 in1017.9 mb - 0.00 in0.0 mm 0.13 in3.3 mm
08:10 PM 40.3°F4.6°C 36.1°F2.3°C 85% 5.8 mph WNW9.3 kmh WNW 11.5 mph18.5 kmh 30.06 in1017.9 mb - 0.00 in0.0 mm 0.13 in3.3 mm
08:20 PM 40.0°F4.4°C 35.9°F2.2°C 85% 4.6 mph WNW7.4 kmh WNW 8.1 mph13.0 kmh 30.07 in1018.3 mb - 0.00 in0.0 mm 0.13 in3.3 mm
08:30 PM 39.7°F4.3°C 35.9°F2.2°C 86% 5.8 mph WNW9.3 kmh WNW 9.2 mph14.8 kmh 30.06 in1017.9 mb - 0.00 in0.0 mm 0.13 in3.3 mm
08:40 PM 39.5°F4.2°C 35.6°F2.0°C 86% 6.9 mph WNW11.1 kmh WNW 13.8 mph22.2 kmh 30.06 in1017.9 mb - 0.00 in0.0 mm 0.13 in3.3 mm
08:50 PM 39.5°F4.2°C 36.0°F2.2°C 87% 5.8 mph WNW9.3 kmh WNW 13.8 mph22.2 kmh 30.07 in1018.3 mb - 0.00 in0.0 mm 0.13 in3.3 mm
09:00 PM 39.7°F4.3°C 35.9°F2.2°C 86% 5.8 mph NW9.3 kmh NW 8.1 mph13.0 kmh 30.07 in1018.3 mb - 0.00 in0.0 mm 0.13 in3.3 mm
09:10 PM 38.4°F3.6°C 35.7°F2.1°C 90% 9.2 mph NW14.8 kmh NW 11.5 mph18.5 kmh 30.08 in1018.6 mb - 0.00 in0.0 mm 0.13 in3.3 mm
09:20 PM 37.6°F3.1°C 35.5°F1.9°C 92% 5.8 mph WNW9.3 kmh WNW 8.1 mph13.0 kmh 30.07 in1018.3 mb - 0.01 in0.3 mm 0.14 in3.6 mm
09:30 PM 37.4°F3.0°C 35.3°F1.8°C 92% 1.2 mph WNW1.9 kmh WNW 8.1 mph13.0 kmh 30.07 in1018.3 mb - 0.00 in0.0 mm 0.14 in3.6 mm
09:40 PM 37.3°F2.9°C 35.2°F1.8°C 92% 1.2 mph W1.9 kmh W 4.6 mph7.4 kmh 30.07 in1018.3 mb - 0.00 in0.0 mm 0.14 in3.6 mm
09:50 PM 37.4°F3.0°C 35.0°F1.7°C 91% 4.6 mph W7.4 kmh W 5.8 mph9.3 kmh 30.07 in1018.3 mb - 0.00 in0.0 mm 0.14 in3.6 mm
10:00 PM 37.2°F2.9°C 34.8°F1.6°C 91% 3.5 mph W5.6 kmh W 5.8 mph9.3 kmh 30.07 in1018.3 mb - 0.00 in0.0 mm 0.14 in3.6 mm
10:10 PM 36.9°F2.7°C 34.6°F1.4°C 91% 2.3 mph W3.7 kmh W 4.6 mph7.4 kmh 30.07 in1018.3 mb - 0.00 in0.0 mm 0.14 in3.6 mm
10:20 PM 37.0°F2.8°C 34.3°F1.3°C 90% 3.5 mph WNW5.6 kmh WNW 5.8 mph9.3 kmh 30.08 in1018.6 mb - 0.00 in0.0 mm 0.14 in3.6 mm
10:30 PM 37.3°F2.9°C 34.1°F1.2°C 88% 4.6 mph WNW7.4 kmh WNW 6.9 mph11.1 kmh 30.07 in1018.3 mb - 0.00 in0.0 mm 0.14 in3.6 mm
10:40 PM 37.5°F3.1°C 34.3°F1.3°C 88% 4.6 mph W7.4 kmh W 5.8 mph9.3 kmh 30.07 in1018.3 mb - 0.00 in0.0 mm 0.14 in3.6 mm
10:50 PM 37.5°F3.1°C 34.3°F1.3°C 88% 5.8 mph WNW9.3 kmh WNW 9.2 mph14.8 kmh 30.08 in1018.6 mb - 0.00 in0.0 mm 0.14 in3.6 mm
11:00 PM 37.6°F3.1°C 34.1°F1.2°C 87% 4.6 mph WNW7.4 kmh WNW 8.1 mph13.0 kmh 30.08 in1018.6 mb - 0.00 in0.0 mm 0.14 in3.6 mm
11:10 PM 37.7°F3.2°C 33.9°F1.1°C 86% 6.9 mph WNW11.1 kmh WNW 13.8 mph22.2 kmh 30.08 in1018.6 mb - 0.00 in0.0 mm 0.14 in3.6 mm
11:20 PM 37.9°F3.3°C 33.5°F0.8°C 84% 9.2 mph WNW14.8 kmh WNW 15.0 mph24.1 kmh 30.08 in1018.6 mb - 0.00 in0.0 mm 0.14 in3.6 mm
11:30 PM 38.3°F3.5°C 33.0°F0.6°C 81% 8.1 mph W13.0 kmh W 12.7 mph20.4 kmh 30.08 in1018.6 mb - 0.00 in0.0 mm 0.14 in3.6 mm
11:40 PM 38.3°F3.5°C 33.0°F0.6°C 81% 10.4 mph WNW16.7 kmh WNW 19.6 mph31.5 kmh 30.08 in1018.6 mb - 0.00 in0.0 mm 0.14 in3.6 mm
11:50 PM 38.2°F3.4°C 32.9°F0.5°C 81% 6.9 mph WNW11.1 kmh WNW 13.8 mph22.2 kmh 30.09 in1019.0 mb - 0.00 in0.0 mm 0.14 in3.6 mm